Time;durP1;ratioP1;P1;durP2;ratioP2;P2;SDS_P1;SDS_P2;PMS_P1;PMS_P2;Temp;Humidity;BMP_temperature;BMP_pressure;BME280_temperature;BME280_humidity;BME280_pressure;Samples;Min_cycle;Max_cycle;Signal;HPM_P1;HPM_P2
2022/03/21 00:01:58;;;;;;;5.28;2.95;;;11.00;99.90;;;;;;4994792;28;20451;-70
2022/03/21 00:04:24;;;;;;;6.53;2.60;;;11.00;99.90;;;;;;4994025;28;20333;-70
2022/03/21 00:06:50;;;;;;;5.10;2.80;;;11.00;99.90;;;;;;4995262;28;20065;-70
2022/03/21 00:09:16;;;;;;;6.38;3.00;;;11.00;99.90;;;;;;4992792;28;20557;-71
2022/03/21 00:11:42;;;;;;;5.50;2.90;;;11.00;99.90;;;;;;4994033;28;20484;-70
2022/03/21 00:14:11;;;;;;;5.38;2.70;;;11.10;99.90;;;;;;4996574;28;20099;-70
2022/03/21 00:16:37;;;;;;;5.32;2.70;;;11.10;99.90;;;;;;4995185;28;20494;-70
2022/03/21 00:19:03;;;;;;;7.32;2.88;;;11.10;99.90;;;;;;4995190;28;20076;-70
2022/03/21 00:21:29;;;;;;;5.20;2.90;;;11.10;99.90;;;;;;4993213;28;20430;-70
2022/03/21 00:23:55;;;;;;;4.57;2.50;;;11.10;99.90;;;;;;4991118;28;20080;-70
2022/03/21 00:26:21;;;;;;;4.20;2.50;;;11.10;99.90;;;;;;4996426;28;20032;-71
2022/03/21 00:28:47;;;;;;;5.13;3.00;;;11.20;99.90;;;;;;4994934;28;20503;-70
2022/03/21 00:31:13;;;;;;;6.10;2.75;;;11.20;99.90;;;;;;4995058;28;20022;-70
2022/03/21 00:33:39;;;;;;;4.65;2.60;;;11.20;99.90;;;;;;4993940;28;20120;-70
2022/03/21 00:36:08;;;;;;;5.07;2.65;;;11.20;99.90;;;;;;4990826;28;20141;-70
2022/03/21 00:38:37;;;;;;;3.70;2.40;;;11.30;99.90;;;;;;4995438;28;20463;-71
2022/03/21 00:41:05;;;;;;;4.78;2.80;;;11.30;99.90;;;;;;4994529;28;20051;-70
2022/03/21 00:43:31;;;;;;;5.18;2.58;;;11.30;99.90;;;;;;4993423;28;20057;-70
2022/03/21 00:46:00;;;;;;;4.88;2.40;;;11.30;99.90;;;;;;4994640;28;20026;-71
2022/03/21 00:48:28;;;;;;;4.43;2.55;;;11.30;99.90;;;;;;4993194;28;20095;-70
2022/03/21 00:50:55;;;;;;;3.65;2.35;;;11.30;99.90;;;;;;4991356;28;20397;-70
2022/03/21 00:53:21;;;;;;;4.47;2.42;;;11.30;99.90;;;;;;4997044;28;20061;-70
2022/03/21 00:55:48;;;;;;;3.92;2.58;;;11.20;99.90;;;;;;4994442;28;20019;-70
2022/03/21 00:58:16;;;;;;;5.97;2.35;;;11.20;99.90;;;;;;4994596;28;20027;-70
2022/03/21 01:00:42;;;;;;;5.15;2.75;;;11.20;99.90;;;;;;4993143;28;20037;-70
2022/03/21 01:03:09;;;;;;;4.18;2.70;;;11.20;99.90;;;;;;4991114;28;20037;-70
2022/03/21 01:05:35;;;;;;;4.65;2.50;;;11.20;99.90;;;;;;4995340;28;20029;-70
2022/03/21 01:08:04;;;;;;;3.42;2.40;;;11.30;99.90;;;;;;4993274;28;20042;-70
2022/03/21 01:10:31;;;;;;;4.50;2.53;;;11.30;99.90;;;;;;4994453;28;20030;-70
2022/03/21 01:12:57;;;;;;;5.68;2.78;;;11.20;99.90;;;;;;4991906;28;20030;-70
2022/03/21 01:15:25;;;;;;;5.82;2.80;;;11.30;99.90;;;;;;4992989;28;20046;-70
2022/03/21 01:17:52;;;;;;;5.78;2.50;;;11.30;99.90;;;;;;4991824;28;20034;-70
2022/03/21 01:20:20;;;;;;;4.07;2.45;;;11.30;99.90;;;;;;4996697;28;20458;-70
2022/03/21 01:22:47;;;;;;;4.00;2.40;;;11.30;99.90;;;;;;4992773;28;20041;-70
2022/03/21 01:25:13;;;;;;;4.18;2.50;;;11.30;99.90;;;;;;4994241;28;20026;-69
2022/03/21 01:27:40;;;;;;;4.03;2.22;;;11.30;99.90;;;;;;4994803;28;20045;-69
2022/03/21 01:30:09;;;;;;;4.10;2.45;;;11.30;99.90;;;;;;4990563;28;20031;-70
2022/03/21 01:32:35;;;;;;;4.80;2.33;;;11.30;99.90;;;;;;4995062;28;20034;-70
2022/03/21 01:35:02;;;;;;;5.00;2.47;;;11.20;99.90;;;;;;4993938;28;20111;-70
2022/03/21 01:37:28;;;;;;;4.80;2.40;;;11.30;99.90;;;;;;4995453;28;20030;-71
2022/03/21 01:39:54;;;;;;;3.40;2.08;;;11.30;99.90;;;;;;4996466;28;20083;-70
2022/03/21 01:42:20;;;;;;;5.50;2.83;;;11.30;99.90;;;;;;4995828;28;20042;-69
2022/03/21 01:44:52;;;;;;;4.07;2.47;;;11.20;99.90;;;;;;4995655;28;20058;-71
2022/03/21 01:47:18;;;;;;;6.28;2.60;;;11.20;99.90;;;;;;4997112;28;20112;-69
2022/03/21 01:49:45;;;;;;;5.22;2.47;;;11.30;99.90;;;;;;4996945;28;20050;-69
2022/03/21 01:52:12;;;;;;;4.22;2.30;;;11.20;99.90;;;;;;4996186;28;20372;-70
2022/03/21 01:57:22;;;;;;;3.63;2.50;;;11.20;99.90;;;;;;4996219;28;20518;-69
2022/03/21 01:59:49;;;;;;;3.58;2.50;;;11.20;99.90;;;;;;4996168;28;20054;-69
2022/03/21 02:02:15;;;;;;;4.75;2.50;;;11.20;99.90;;;;;;4997947;28;20112;-70
2022/03/21 02:04:42;;;;;;;4.05;2.72;;;11.20;99.90;;;;;;4996387;28;20026;-69
2022/03/21 02:07:08;;;;;;;5.10;2.83;;;11.20;99.90;;;;;;4997035;28;20534;-69
2022/03/21 02:09:34;;;;;;;4.07;2.65;;;11.20;99.90;;;;;;4997647;28;20033;-69
2022/03/21 02:12:01;;;;;;;4.93;2.50;;;11.20;99.90;;;;;;4993324;28;20039;-70
2022/03/21 02:14:27;;;;;;;4.03;2.47;;;11.10;99.90;;;;;;4999530;28;20022;-70
2022/03/21 02:16:53;;;;;;;5.47;2.65;;;11.10;99.90;;;;;;4997319;28;20026;-70
2022/03/21 02:19:30;;;;;;;4.93;2.60;;;11.10;99.90;;;;;;4994576;28;20109;-70
2022/03/21 02:22:20;;;;;;;5.13;2.60;;;11.10;99.90;;;;;;4997319;28;20125;-70
2022/03/21 02:25:10;;;;;;;4.50;2.55;;;11.10;99.90;;;;;;4997130;28;20040;-70
2022/03/21 02:27:38;;;;;;;3.83;2.60;;;11.10;99.90;;;;;;4997099;28;20038;-69
2022/03/21 02:30:05;;;;;;;4.97;2.63;;;11.10;99.90;;;;;;4991768;28;20037;-69
2022/03/21 02:32:31;;;;;;;4.38;2.60;;;11.10;99.90;;;;;;5006519;28;20029;-70
2022/03/21 02:34:58;;;;;;;5.20;2.70;;;11.00;99.90;;;;;;4997295;28;20492;-70
2022/03/21 02:37:26;;;;;;;4.25;2.90;;;11.00;99.90;;;;;;4996732;28;20387;-70
2022/03/21 02:39:54;;;;;;;4.47;2.80;;;11.00;99.90;;;;;;4995635;28;20101;-70
2022/03/21 02:42:20;;;;;;;4.75;2.80;;;11.00;99.90;;;;;;4994692;28;20054;-69
2022/03/21 02:44:45;;;;;;;6.20;3.08;;;11.00;99.90;;;;;;4995034;28;20522;-70
2022/03/21 02:47:11;;;;;;;5.30;2.80;;;10.90;99.90;;;;;;4998580;28;20054;-70
2022/03/21 02:49:37;;;;;;;6.22;2.85;;;10.90;99.90;;;;;;4996198;28;20452;-70
2022/03/21 02:52:05;;;;;;;4.75;2.80;;;10.90;99.90;;;;;;4996695;28;20042;-70
2022/03/21 02:54:32;;;;;;;5.60;2.75;;;10.90;99.90;;;;;;4996125;28;20394;-70
2022/03/21 02:56:59;;;;;;;3.85;2.53;;;10.90;99.90;;;;;;4992028;28;20054;-70
2022/03/21 02:59:26;;;;;;;5.13;2.75;;;10.90;99.90;;;;;;4998409;28;20030;-70
2022/03/21 03:01:53;;;;;;;3.75;2.30;;;10.90;99.90;;;;;;4996679;28;20383;-70
2022/03/21 03:04:26;;;;;;;3.85;2.30;;;10.90;99.90;;;;;;4996303;28;20503;-71
2022/03/21 03:06:52;;;;;;;4.97;2.45;;;10.80;99.90;;;;;;4996234;28;20038;-70
2022/03/21 03:09:19;;;;;;;5.30;3.28;;;10.80;99.90;;;;;;4992610;28;20023;-69
2022/03/21 03:11:45;;;;;;;3.17;2.45;;;10.80;99.90;;;;;;4994905;28;20034;-69
2022/03/21 03:14:11;;;;;;;5.60;2.50;;;10.90;99.90;;;;;;4997894;28;20103;-70
2022/03/21 03:16:37;;;;;;;5.55;2.97;;;10.80;99.90;;;;;;4996564;28;20571;-70
2022/03/21 03:19:03;;;;;;;5.18;2.65;;;10.90;99.90;;;;;;4994605;28;20503;-69
2022/03/21 03:21:39;;;;;;;4.47;2.38;;;10.80;99.90;;;;;;4995164;28;20488;-70
2022/03/21 03:24:08;;;;;;;4.30;2.35;;;10.80;99.90;;;;;;4976921;28;20050;-70
2022/03/21 03:26:34;;;;;;;4.47;2.30;;;10.90;99.90;;;;;;4997216;28;20119;-69
2022/03/21 03:28:59;;;;;;;3.72;2.50;;;10.90;99.90;;;;;;4995942;28;20165;-69
2022/03/21 03:31:26;;;;;;;3.95;2.35;;;10.80;99.90;;;;;;4996033;28;20573;-70
2022/03/21 03:33:51;;;;;;;5.30;2.38;;;10.90;99.90;;;;;;4995562;28;20026;-69
2022/03/21 03:36:17;;;;;;;4.88;2.60;;;10.80;99.90;;;;;;4994322;28;20032;-70
2022/03/21 03:38:44;;;;;;;4.90;2.67;;;10.80;99.90;;;;;;4994952;28;20035;-70
2022/03/21 03:41:10;;;;;;;5.15;2.50;;;10.80;99.90;;;;;;4997303;28;20046;-69
2022/03/21 03:43:37;;;;;;;7.18;2.58;;;10.80;99.90;;;;;;4994323;28;20018;-71
2022/03/21 03:46:03;;;;;;;7.30;2.80;;;10.90;99.90;;;;;;4995657;28;20053;-70
2022/03/21 03:48:29;;;;;;;6.53;2.70;;;10.90;99.90;;;;;;4992974;28;20042;-69
2022/03/21 03:50:55;;;;;;;5.90;2.92;;;10.80;99.90;;;;;;4992069;28;20027;-69
2022/03/21 03:53:21;;;;;;;4.80;2.47;;;10.90;99.90;;;;;;4997936;28;20030;-69
2022/03/21 03:55:47;;;;;;;4.70;2.35;;;10.90;99.90;;;;;;4995774;28;20118;-69
2022/03/21 03:58:13;;;;;;;4.18;2.53;;;10.90;99.90;;;;;;4994371;28;20018;-69
2022/03/21 04:00:39;;;;;;;6.05;2.50;;;10.90;99.90;;;;;;4994592;28;20502;-69
2022/03/21 04:05:49;;;;;;;3.85;2.30;;;10.80;99.90;;;;;;4992884;28;20083;-69
2022/03/21 04:08:15;;;;;;;5.43;2.85;;;10.90;99.90;;;;;;4997835;28;20483;-69
2022/03/21 04:10:41;;;;;;;6.72;2.88;;;10.90;99.90;;;;;;4995320;28;20037;-69
2022/03/21 04:13:07;;;;;;;5.13;2.22;;;10.90;99.90;;;;;;4995144;28;20030;-69
2022/03/21 04:15:33;;;;;;;4.45;2.40;;;10.90;99.90;;;;;;4993342;28;20068;-70
2022/03/21 04:18:03;;;;;;;4.88;2.80;;;10.90;99.90;;;;;;4991499;28;20035;-70
2022/03/21 04:20:31;;;;;;;4.15;2.50;;;10.90;99.90;;;;;;4997051;28;20022;-69
2022/03/21 04:22:57;;;;;;;6.15;2.40;;;10.90;99.90;;;;;;4995142;28;20096;-69
2022/03/21 04:25:23;;;;;;;2.80;2.40;;;10.90;99.90;;;;;;4993762;28;20034;-69
2022/03/21 04:27:49;;;;;;;4.53;2.70;;;10.90;99.90;;;;;;4993573;28;20037;-69
2022/03/21 04:30:15;;;;;;;5.95;2.75;;;10.90;99.90;;;;;;4990776;28;20026;-69
2022/03/21 04:32:41;;;;;;;4.90;2.55;;;10.90;99.90;;;;;;4995065;28;20058;-69
2022/03/21 04:35:07;;;;;;;4.72;2.58;;;10.90;99.90;;;;;;4995930;28;20030;-69
2022/03/21 04:37:33;;;;;;;5.32;2.70;;;10.90;99.90;;;;;;4993512;28;20105;-69
2022/03/21 04:39:59;;;;;;;5.00;2.70;;;11.00;99.90;;;;;;4994781;28;20156;-69
2022/03/21 04:42:25;;;;;;;3.83;2.30;;;11.00;99.90;;;;;;4993144;28;20065;-69
2022/03/21 04:44:51;;;;;;;4.80;2.38;;;10.90;99.90;;;;;;4991758;28;20030;-69
2022/03/21 04:47:19;;;;;;;4.57;2.30;;;11.00;99.90;;;;;;4996717;28;20038;-69
2022/03/21 04:49:45;;;;;;;5.78;2.22;;;11.00;99.90;;;;;;4994938;28;20069;-69
2022/03/21 04:52:12;;;;;;;4.38;2.50;;;11.00;99.90;;;;;;4994726;28;20426;-69
2022/03/21 04:54:39;;;;;;;5.25;2.35;;;11.00;99.90;;;;;;4993114;28;20018;-69
2022/03/21 04:57:06;;;;;;;5.00;2.50;;;11.10;99.90;;;;;;4990605;28;20057;-69
2022/03/21 04:59:33;;;;;;;4.20;2.38;;;11.00;99.90;;;;;;5003624;28;20026;-69
2022/03/21 05:01:59;;;;;;;4.80;2.47;;;11.00;99.90;;;;;;4993316;28;20117;-69
2022/03/21 05:04:26;;;;;;;6.05;2.50;;;11.00;99.90;;;;;;4994903;28;20027;-69
2022/03/21 05:06:54;;;;;;;6.82;2.95;;;11.00;99.90;;;;;;4993240;28;20045;-69
2022/03/21 05:09:20;;;;;;;4.32;2.63;;;11.00;99.90;;;;;;4992357;28;20053;-69
2022/03/21 05:11:46;;;;;;;5.47;2.47;;;11.00;99.90;;;;;;4994959;28;20150;-69
2022/03/21 05:14:11;;;;;;;5.70;2.70;;;11.10;99.90;;;;;;5000249;28;20471;-69
2022/03/21 05:16:38;;;;;;;5.10;2.50;;;11.10;99.90;;;;;;4996900;28;20023;-69
2022/03/21 05:19:05;;;;;;;6.35;2.80;;;11.10;99.90;;;;;;4997184;28;20034;-69
2022/03/21 05:21:30;;;;;;;7.10;3.20;;;11.10;99.90;;;;;;4997724;28;20032;-69
2022/03/21 05:32:09;;;;;;;5.68;2.42;;;11.10;99.90;;;;;;4999647;28;20037;-70
2022/03/21 05:37:19;;;;;;;5.13;2.47;;;11.10;99.90;;;;;;4997968;28;20029;-69
2022/03/21 05:42:29;;;;;;;5.45;2.15;;;11.10;99.90;;;;;;4996800;28;20036;-70
2022/03/21 05:44:54;;;;;;;7.63;2.63;;;11.00;99.90;;;;;;4994595;28;20035;-70
2022/03/21 05:47:20;;;;;;;4.15;2.33;;;11.00;99.90;;;;;;4998813;28;20043;-70
2022/03/21 05:49:46;;;;;;;6.70;3.00;;;11.00;99.90;;;;;;4997893;28;20062;-70
2022/03/21 05:52:12;;;;;;;5.63;2.60;;;11.00;99.90;;;;;;4997994;28;20037;-69
2022/03/21 05:54:37;;;;;;;5.75;2.55;;;11.00;99.90;;;;;;4996313;28;20104;-69
2022/03/21 05:57:04;;;;;;;8.10;2.75;;;11.00;99.90;;;;;;4993546;28;20110;-69
2022/03/21 06:02:16;;;;;;;6.10;2.88;;;11.00;99.90;;;;;;4999540;28;20037;-69
2022/03/21 06:04:42;;;;;;;6.32;2.70;;;11.00;99.90;;;;;;4997963;28;20372;-69
2022/03/21 06:07:10;;;;;;;6.43;2.45;;;11.10;99.90;;;;;;4997319;28;20034;-69
2022/03/21 06:09:36;;;;;;;8.55;2.70;;;11.10;99.90;;;;;;4997393;28;20504;-69
2022/03/21 06:12:01;;;;;;;6.38;2.55;;;11.10;99.90;;;;;;4992063;28;20034;-69
2022/03/21 06:14:27;;;;;;;6.43;2.60;;;11.10;99.90;;;;;;4999263;28;20018;-69
2022/03/21 06:16:53;;;;;;;6.57;2.75;;;11.10;99.90;;;;;;4997463;28;20399;-70
2022/03/21 06:19:18;;;;;;;8.43;2.72;;;11.10;99.90;;;;;;4997391;28;20510;-70
2022/03/21 06:21:44;;;;;;;6.07;2.65;;;11.10;99.90;;;;;;4997404;28;20026;-69
2022/03/21 06:24:13;;;;;;;7.70;2.63;;;11.10;99.90;;;;;;4991540;28;20399;-70
2022/03/21 06:26:40;;;;;;;7.10;2.60;;;11.10;99.90;;;;;;4996940;28;20077;-70
2022/03/21 06:29:06;;;;;;;7.45;2.72;;;11.10;99.90;;;;;;4998290;28;20027;-70
2022/03/21 06:31:31;;;;;;;6.97;2.92;;;11.20;99.90;;;;;;4997053;28;20161;-71
2022/03/21 06:33:57;;;;;;;5.55;2.78;;;11.20;99.90;;;;;;4995775;28;20129;-71
2022/03/21 06:36:23;;;;;;;5.63;3.33;;;11.10;99.90;;;;;;4995164;28;20038;-70
2022/03/21 06:38:49;;;;;;;8.52;3.33;;;11.10;99.90;;;;;;4994784;28;20031;-71
2022/03/21 06:41:15;;;;;;;8.88;3.08;;;11.10;99.90;;;;;;4996839;28;20621;-71
2022/03/21 06:43:42;;;;;;;7.05;2.95;;;11.10;99.90;;;;;;4996821;28;20062;-71
2022/03/21 06:46:08;;;;;;;8.55;3.35;;;11.10;99.90;;;;;;4996661;28;20399;-71
2022/03/21 06:48:34;;;;;;;10.20;3.15;;;11.20;99.90;;;;;;4996342;28;20038;-70
2022/03/21 06:51:00;;;;;;;7.85;2.95;;;11.20;99.90;;;;;;4992636;28;20031;-71
2022/03/21 06:53:26;;;;;;;5.88;3.20;;;11.20;99.90;;;;;;4997144;28;20030;-71
2022/03/21 06:55:52;;;;;;;7.00;3.17;;;11.20;99.90;;;;;;4996155;28;20033;-70
2022/03/21 06:58:18;;;;;;;7.10;2.97;;;11.20;99.90;;;;;;4996685;28;20109;-70
2022/03/21 07:00:47;;;;;;;5.47;2.50;;;11.20;99.90;;;;;;4996641;28;20483;-70
2022/03/21 07:03:19;;;;;;;4.85;2.65;;;11.20;99.90;;;;;;4991846;28;20039;-69
2022/03/21 07:05:45;;;;;;;6.35;2.55;;;11.30;99.90;;;;;;4995387;28;20562;-68
2022/03/21 07:08:11;;;;;;;7.15;2.90;;;11.30;99.90;;;;;;4998164;28;20039;-69
2022/03/21 07:10:40;;;;;;;7.47;3.00;;;11.20;99.90;;;;;;4996020;28;20065;-68
2022/03/21 07:13:06;;;;;;;8.15;4.55;;;11.30;99.90;;;;;;4994841;28;20034;-67
2022/03/21 07:15:32;;;;;;;7.18;2.90;;;11.30;99.90;;;;;;4995476;28;20022;-68
2022/03/21 07:17:58;;;;;;;5.25;2.80;;;11.40;99.90;;;;;;4992623;28;20065;-68
2022/03/21 07:20:28;;;;;;;7.55;3.08;;;11.40;99.90;;;;;;4998198;28;20522;-69
2022/03/21 07:22:55;;;;;;;7.10;2.58;;;11.50;99.90;;;;;;4996283;28;20038;-68
2022/03/21 07:25:21;;;;;;;7.28;2.90;;;11.50;99.90;;;;;;4995943;28;20027;-68
2022/03/21 07:27:48;;;;;;;8.98;2.90;;;11.50;99.90;;;;;;4995848;28;20457;-69
2022/03/21 07:30:14;;;;;;;8.18;2.60;;;11.50;99.90;;;;;;4991337;28;20026;-68
2022/03/21 07:32:40;;;;;;;8.38;2.95;;;11.60;99.90;;;;;;4996133;28;20027;-68
2022/03/21 07:35:07;;;;;;;6.55;2.65;;;11.70;99.90;;;;;;4995593;28;20034;-70
2022/03/21 07:37:44;;;;;;;6.20;2.67;;;11.80;99.90;;;;;;4995809;28;20026;-70
2022/03/21 07:40:11;;;;;;;6.53;2.60;;;12.00;99.90;;;;;;4995540;28;20128;-70
2022/03/21 07:42:44;;;;;;;6.05;2.63;;;11.90;99.90;;;;;;4993160;28;20061;-70
2022/03/21 07:47:56;;;;;;;8.02;3.30;;;12.20;99.90;;;;;;4992297;28;20085;-70
2022/03/21 07:50:26;;;;;;;8.00;3.13;;;12.20;99.90;;;;;;4997629;28;20484;-70
2022/03/21 07:52:53;;;;;;;8.18;3.15;;;12.30;99.90;;;;;;4994196;28;20104;-70
2022/03/21 07:55:19;;;;;;;6.80;2.90;;;12.50;99.90;;;;;;4995236;28;20081;-70
2022/03/21 07:57:46;;;;;;;10.27;3.17;;;12.50;99.90;;;;;;4995077;28;20076;-70
2022/03/21 08:00:13;;;;;;;8.68;3.08;;;12.70;99.90;;;;;;4991549;28;20113;-71
2022/03/21 08:02:39;;;;;;;8.60;2.60;;;12.80;99.90;;;;;;4995645;28;20375;-71
2022/03/21 08:05:06;;;;;;;8.27;2.85;;;12.90;99.90;;;;;;4994349;28;20034;-71
2022/03/21 08:07:32;;;;;;;8.48;2.80;;;13.10;99.90;;;;;;4994720;28;20042;-70
2022/03/21 08:09:58;;;;;;;7.93;2.90;;;13.40;99.90;;;;;;4993837;28;20037;-71
2022/03/21 08:12:24;;;;;;;9.07;3.03;;;13.40;99.90;;;;;;4989439;28;20038;-72
2022/03/21 08:14:51;;;;;;;6.15;2.90;;;13.60;99.90;;;;;;4992638;28;20412;-71
2022/03/21 08:17:18;;;;;;;8.40;3.00;;;13.70;99.90;;;;;;4997210;28;20026;-71
2022/03/21 08:19:44;;;;;;;9.55;3.05;;;13.70;99.90;;;;;;4994228;28;20115;-71
2022/03/21 08:22:10;;;;;;;8.95;2.70;;;13.90;99.90;;;;;;4993561;28;20426;-71
2022/03/21 08:24:36;;;;;;;8.27;2.97;;;14.30;99.90;;;;;;4993633;28;20057;-71
2022/03/21 08:27:05;;;;;;;6.35;2.58;;;14.30;99.90;;;;;;4975172;28;20066;-71
2022/03/21 08:29:31;;;;;;;8.30;3.05;;;14.70;99.90;;;;;;4997401;28;20089;-71
2022/03/21 08:31:57;;;;;;;6.38;2.80;;;16.40;99.90;;;;;;4993532;28;20030;-71
2022/03/21 08:34:23;;;;;;;10.82;3.10;;;17.70;99.90;;;;;;4995305;28;20034;-71
2022/03/21 08:36:49;;;;;;;8.02;2.95;;;17.50;99.90;;;;;;4994556;28;20025;-71
2022/03/21 08:39:15;;;;;;;7.80;2.67;;;17.40;99.90;;;;;;4991913;28;20030;-71
2022/03/21 08:41:41;;;;;;;5.15;2.40;;;18.10;99.90;;;;;;4994411;28;20050;-71
2022/03/21 08:44:07;;;;;;;6.47;2.30;;;20.30;99.90;;;;;;4995774;28;20125;-71
2022/03/21 08:46:33;;;;;;;5.22;2.30;;;21.80;99.90;;;;;;4993234;28;20038;-71
2022/03/21 08:51:43;;;;;;;7.88;2.60;;;22.10;98.80;;;;;;4994690;28;20041;-70
2022/03/21 08:54:10;;;;;;;5.88;2.60;;;21.10;99.10;;;;;;4991190;28;20038;-71
2022/03/21 08:56:36;;;;;;;6.65;2.90;;;19.90;99.90;;;;;;4995474;28;20026;-71
2022/03/21 08:59:02;;;;;;;6.63;2.20;;;20.70;99.90;;;;;;4993881;28;20034;-71
2022/03/21 09:01:28;;;;;;;5.47;2.13;;;21.60;98.90;;;;;;4993652;28;20033;-71
2022/03/21 09:03:55;;;;;;;5.32;2.40;;;21.60;98.00;;;;;;4994705;28;20172;-71
2022/03/21 09:06:21;;;;;;;8.18;2.58;;;21.20;98.50;;;;;;4992349;28;20058;-71
2022/03/21 09:08:50;;;;;;;7.88;2.53;;;22.80;97.00;;;;;;4993233;28;20048;-71
2022/03/21 09:11:20;;;;;;;6.18;2.55;;;22.40;96.60;;;;;;4995197;28;20061;-71
2022/03/21 09:13:46;;;;;;;6.97;2.20;;;22.60;96.30;;;;;;4994398;28;20053;-71
2022/03/21 09:16:13;;;;;;;4.35;2.30;;;22.60;96.10;;;;;;4994584;28;20030;-71
2022/03/21 09:18:40;;;;;;;7.05;2.40;;;22.10;96.30;;;;;;4994896;28;20034;-71
2022/03/21 09:21:06;;;;;;;5.68;2.20;;;22.80;96.00;;;;;;4989984;28;20023;-70
2022/03/21 09:23:33;;;;;;;5.70;2.58;;;22.00;96.60;;;;;;4996395;28;20046;-72
2022/03/21 09:26:02;;;;;;;4.63;2.10;;;22.30;96.00;;;;;;4994721;28;20491;-72
2022/03/21 09:28:32;;;;;;;5.82;2.13;;;22.40;95.40;;;;;;4993000;28;20570;-72
2022/03/21 09:30:58;;;;;;;7.72;2.35;;;19.90;98.80;;;;;;4992989;28;20041;-71
2022/03/21 09:33:24;;;;;;;7.35;2.35;;;19.70;99.20;;;;;;4992804;28;20030;-71
2022/03/21 09:35:50;;;;;;;6.28;2.55;;;19.70;99.10;;;;;;4991448;28;20546;-71
2022/03/21 09:38:17;;;;;;;7.93;2.40;;;19.00;99.90;;;;;;4996298;28;20041;-71
2022/03/21 09:40:43;;;;;;;5.78;2.15;;;19.20;99.90;;;;;;4995005;28;20094;-71
2022/03/21 09:43:10;;;;;;;8.57;2.53;;;20.30;99.10;;;;;;4994135;28;20043;-71
2022/03/21 09:45:36;;;;;;;7.57;3.28;;;21.00;98.90;;;;;;4994548;28;20029;-71
2022/03/21 09:48:09;;;;;;;6.25;3.13;;;22.00;97.60;;;;;;4974346;28;20042;-72
2022/03/21 09:50:42;;;;;;;5.22;2.75;;;22.70;95.80;;;;;;5003505;28;20148;-72
2022/03/21 09:53:10;;;;;;;7.20;2.40;;;22.40;96.00;;;;;;4994918;28;20033;-71
2022/03/21 09:55:37;;;;;;;5.40;2.55;;;22.00;96.40;;;;;;4994036;28;20014;-71
2022/03/21 09:58:03;;;;;;;6.07;2.25;;;23.80;94.90;;;;;;4994861;28;20026;-72
2022/03/21 10:00:29;;;;;;;6.43;2.50;;;23.80;94.10;;;;;;4996933;28;20033;-71
2022/03/21 10:02:56;;;;;;;5.65;2.60;;;23.20;95.10;;;;;;4994375;28;20046;-71
2022/03/21 10:05:43;;;;;;;5.20;2.40;;;23.70;94.30;;;;;;4999397;28;20518;-71
2022/03/21 10:08:24;;;;;;;6.15;2.53;;;25.30;92.70;;;;;;4998597;28;20435;-71
2022/03/21 10:10:57;;;;;;;7.22;2.20;;;23.70;94.50;;;;;;4997617;28;20033;-72
2022/03/21 10:13:26;;;;;;;5.70;2.40;;;22.70;94.80;;;;;;4997932;28;20092;-70
2022/03/21 10:16:10;;;;;;;5.93;2.40;;;22.90;95.00;;;;;;4997396;28;20028;-71
2022/03/21 10:18:36;;;;;;;;;;;23.50;93.50;;;;;;4996044;28;20080;-72
2022/03/21 10:21:15;;;;;;;8.38;3.03;;;24.00;92.40;;;;;;4992296;28;19922;-70
2022/03/21 10:23:44;;;;;;;10.30;3.25;;;23.80;93.70;;;;;;5007137;28;20014;-71
2022/03/21 10:26:28;;;;;;;6.05;2.90;;;23.10;94.10;;;;;;4998729;28;20483;-71
2022/03/21 10:28:56;;;;;;;5.57;2.47;;;22.20;95.10;;;;;;4995974;28;20109;-71
2022/03/21 10:31:34;;;;;;;5.22;2.35;;;22.60;94.40;;;;;;4997212;28;20141;-71
2022/03/21 10:34:02;;;;;;;6.50;2.17;;;22.20;95.40;;;;;;4996904;28;20035;-71
2022/03/21 10:36:28;;;;;;;6.07;2.35;;;22.40;95.20;;;;;;4995973;28;20034;-71
2022/03/21 10:39:07;;;;;;;9.18;2.55;;;23.00;94.60;;;;;;4992875;28;20153;-71
2022/03/21 10:41:35;;;;;;;5.13;2.17;;;22.30;94.80;;;;;;5006301;28;20047;-70
2022/03/21 10:44:02;;;;;;;5.88;2.38;;;22.20;95.10;;;;;;4997374;28;20034;-71
2022/03/21 10:46:27;;;;;;;7.75;2.30;;;22.00;95.30;;;;;;4995686;28;20462;-71
2022/03/21 10:49:07;;;;;;;5.68;2.20;;;22.10;95.30;;;;;;4996566;28;20069;-71
2022/03/21 10:51:50;;;;;;;8.25;2.38;;;21.00;96.90;;;;;;4996082;28;20018;-71
2022/03/21 10:54:37;;;;;;;4.95;2.13;;;21.70;95.60;;;;;;4980251;28;20034;-71
2022/03/21 10:57:04;;;;;;;7.00;2.42;;;21.10;96.00;;;;;;4975904;28;20030;-71
2022/03/21 10:59:31;;;;;;;6.15;2.30;;;21.70;95.50;;;;;;4998499;28;20030;-71
2022/03/21 11:02:17;;;;;;;5.93;2.10;;;22.50;95.00;;;;;;4996544;28;20458;-73
2022/03/21 11:04:44;;;;;;;6.25;2.17;;;21.20;96.30;;;;;;4996561;28;20076;-73
2022/03/21 11:07:14;;;;;;;4.15;2.10;;;21.00;96.90;;;;;;4994819;28;20590;-73
2022/03/21 11:09:41;;;;;;;5.45;2.00;;;21.10;96.10;;;;;;4995651;28;20026;-73
2022/03/21 11:12:08;;;;;;;5.78;2.00;;;20.90;96.20;;;;;;4992238;28;20027;-73
2022/03/21 11:14:44;;;;;;;4.38;2.00;;;20.30;96.60;;;;;;4998049;28;20036;-74
2022/03/21 11:17:10;;;;;;;5.53;2.28;;;19.00;97.90;;;;;;4997155;28;20061;-68
2022/03/21 11:19:35;;;;;;;4.85;2.30;;;19.70;97.70;;;;;;4995961;28;20031;-67
2022/03/21 11:22:02;;;;;;;6.15;2.63;;;20.20;97.00;;;;;;4995190;28;20113;-69
2022/03/21 11:24:31;;;;;;;4.55;2.17;;;19.50;97.90;;;;;;4993158;28;20026;-68
2022/03/21 11:27:38;;;;;;;5.65;2.25;;;19.00;98.40;;;;;;4991400;28;20046;-68
2022/03/21 11:30:29;;;;;;;6.03;2.30;;;19.30;98.40;;;;;;4976576;28;21259;-68
2022/03/21 11:33:13;;;;;;;7.03;2.60;;;19.20;99.00;;;;;;5006125;28;20045;-68
2022/03/21 11:35:48;;;;;;;6.35;2.35;;;19.30;99.00;;;;;;5005630;28;20050;-69
2022/03/21 11:38:27;;;;;;;5.65;2.33;;;20.20;98.10;;;;;;4997689;28;20037;-68
2022/03/21 11:41:14;;;;;;;6.97;2.42;;;20.90;97.90;;;;;;4995650;28;20088;-69
2022/03/21 11:43:43;;;;;;;5.10;2.20;;;20.50;97.80;;;;;;4995181;28;20438;-68
2022/03/21 11:46:38;;;;;;;7.00;2.55;;;20.50;97.60;;;;;;4992553;28;20061;-67
2022/03/21 11:49:25;;;;;;;21.15;8.23;;;21.20;97.00;;;;;;4985914;28;20054;-68
2022/03/21 11:51:58;;;;;;;10.63;5.20;;;20.40;97.80;;;;;;4995554;28;20018;-68
2022/03/21 11:54:26;;;;;;;4.95;2.45;;;20.20;98.40;;;;;;4993712;28;20030;-69
2022/03/21 11:56:53;;;;;;;5.38;2.88;;;19.90;97.70;;;;;;4992748;28;20034;-69
2022/03/21 11:59:33;;;;;;;6.50;2.30;;;19.70;97.90;;;;;;4997502;28;20099;-67
2022/03/21 12:02:25;;;;;;;6.13;2.10;;;19.80;98.10;;;;;;4994984;28;20105;-68
2022/03/21 12:05:07;;;;;;;7.97;2.42;;;20.00;97.80;;;;;;4993658;28;20364;-67
2022/03/21 12:07:33;;;;;;;4.72;1.85;;;20.10;97.50;;;;;;4995515;28;20045;-67
2022/03/21 12:09:59;;;;;;;3.30;1.80;;;21.50;96.20;;;;;;4995343;28;20469;-68
2022/03/21 12:12:40;;;;;;;9.52;2.63;;;21.60;95.10;;;;;;4993622;28;20034;-67
2022/03/21 12:15:17;;;;;;;4.28;1.88;;;21.50;95.40;;;;;;4973844;28;20454;-66
2022/03/21 12:17:48;;;;;;;4.88;2.00;;;21.80;94.60;;;;;;5005093;28;20029;-68
2022/03/21 12:20:19;;;;;;;3.47;1.90;;;21.50;94.60;;;;;;4996581;28;20034;-66
2022/03/21 12:22:47;;;;;;;5.80;2.05;;;21.00;95.70;;;;;;4994700;28;20026;-67
2022/03/21 12:25:51;;;;;;;5.75;2.20;;;21.60;95.20;;;;;;4993506;28;20034;-66
2022/03/21 12:31:32;;;;;;;5.93;1.83;;;21.10;95.60;;;;;;4995045;28;20057;-68
2022/03/21 12:34:35;;;;;;;2.30;1.85;;;21.40;94.90;;;;;;4994792;28;20487;-66
2022/03/21 12:37:22;;;;;;;3.83;1.75;;;21.00;95.50;;;;;;4992248;28;20419;-66
2022/03/21 12:39:48;;;;;;;4.10;2.13;;;21.10;95.90;;;;;;4994878;28;20022;-65
2022/03/21 12:42:17;;;;;;;3.35;1.73;;;20.80;95.50;;;;;;4990256;28;20062;-65
2022/03/21 12:44:42;;;;;;;5.78;1.95;;;20.40;95.50;;;;;;4994214;28;20022;-67
2022/03/21 12:47:10;;;;;;;4.65;1.60;;;20.60;95.80;;;;;;4996125;28;20050;-67
2022/03/21 12:49:52;;;;;;;5.22;2.03;;;20.90;95.70;;;;;;4994821;28;20027;-66
2022/03/21 12:52:26;;;;;;;4.50;1.48;;;21.00;95.30;;;;;;4994657;28;20045;-66
2022/03/21 12:54:53;;;;;;;2.97;1.90;;;21.20;94.30;;;;;;4993252;28;20026;-67
2022/03/21 12:57:19;;;;;;;4.18;1.40;;;21.10;94.70;;;;;;4992187;28;20034;-66
2022/03/21 12:59:45;;;;;;;3.88;1.60;;;20.80;95.20;;;;;;4993994;28;20030;-67
2022/03/21 13:02:27;;;;;;;2.65;1.40;;;21.00;94.90;;;;;;4996032;28;20054;-67
2022/03/21 13:10:33;;;;;;;3.40;1.25;;;20.90;94.00;;;;;;4994983;28;20053;-65
2022/03/21 13:13:01;;;;;;;3.55;1.50;;;20.60;94.00;;;;;;4994454;28;20065;-68
2022/03/21 13:15:28;;;;;;;3.90;1.50;;;20.60;93.90;;;;;;4993331;28;20023;-66
2022/03/21 13:18:01;;;;;;;4.43;1.42;;;20.80;93.90;;;;;;4991707;28;20034;-68
2022/03/21 13:20:31;;;;;;;2.88;1.40;;;21.00;93.40;;;;;;4996743;28;20027;-67
2022/03/21 13:22:59;;;;;;;6.65;1.30;;;20.70;94.00;;;;;;4993111;28;20479;-67
2022/03/21 13:25:33;;;;;;;3.45;1.27;;;20.50;94.50;;;;;;4993568;28;20424;-67
2022/03/21 13:28:12;;;;;;;;;;;20.70;94.40;;;;;;4994618;28;20030;-66
2022/03/21 13:31:01;;;;;;;4.85;1.27;;;20.70;94.00;;;;;;4994156;28;20382;-67
2022/03/21 13:33:29;;;;;;;3.58;1.42;;;20.70;94.50;;;;;;4979846;28;20037;-67